sensor_id;sensor_type;location;lat;lon;timestamp;temperature;humidity
26186;DHT22;20067;48.764;9.176;2023-07-08T00:00:19;22.50;60.80
26186;DHT22;20067;48.764;9.176;2023-07-08T00:02:45;22.70;61.80
26186;DHT22;20067;48.764;9.176;2023-07-08T00:05:12;22.90;61.00
26186;DHT22;20067;48.764;9.176;2023-07-08T00:07:39;23.20;60.70
26186;DHT22;20067;48.764;9.176;2023-07-08T00:12:39;23.10;60.20
26186;DHT22;20067;48.764;9.176;2023-07-08T00:15:05;23.00;59.70
26186;DHT22;20067;48.764;9.176;2023-07-08T00:17:31;23.10;59.40
26186;DHT22;20067;48.764;9.176;2023-07-08T00:19:56;22.90;60.30
26186;DHT22;20067;48.764;9.176;2023-07-08T00:22:22;23.00;60.30
26186;DHT22;20067;48.764;9.176;2023-07-08T00:24:50;23.30;59.30
26186;DHT22;20067;48.764;9.176;2023-07-08T00:27:16;23.00;60.20
26186;DHT22;20067;48.764;9.176;2023-07-08T00:29:42;23.10;59.90
26186;DHT22;20067;48.764;9.176;2023-07-08T00:32:11;23.00;59.70
26186;DHT22;20067;48.764;9.176;2023-07-08T00:34:38;23.00;60.40
26186;DHT22;20067;48.764;9.176;2023-07-08T00:37:03;23.10;60.00
26186;DHT22;20067;48.764;9.176;2023-07-08T00:39:31;22.70;60.70
26186;DHT22;20067;48.764;9.176;2023-07-08T00:42:00;22.70;60.90
26186;DHT22;20067;48.764;9.176;2023-07-08T00:44:25;22.30;61.30
26186;DHT22;20067;48.764;9.176;2023-07-08T00:47:05;22.40;61.70
26186;DHT22;20067;48.764;9.176;2023-07-08T00:50:13;22.40;61.40
26186;DHT22;20067;48.764;9.176;2023-07-08T00:52:31;22.30;61.80
26186;DHT22;20067;48.764;9.176;2023-07-08T00:55:01;22.20;62.20
26186;DHT22;20067;48.764;9.176;2023-07-08T00:57:35;22.30;61.50
26186;DHT22;20067;48.764;9.176;2023-07-08T01:00:07;22.50;61.40
26186;DHT22;20067;48.764;9.176;2023-07-08T01:02:53;22.80;61.00
26186;DHT22;20067;48.764;9.176;2023-07-08T01:05:24;22.70;60.40
26186;DHT22;20067;48.764;9.176;2023-07-08T01:08:00;22.60;61.00
26186;DHT22;20067;48.764;9.176;2023-07-08T01:10:35;22.30;61.00
26186;DHT22;20067;48.764;9.176;2023-07-08T01:13:05;22.30;61.50
26186;DHT22;20067;48.764;9.176;2023-07-08T01:15:39;22.40;61.80
26186;DHT22;20067;48.764;9.176;2023-07-08T01:18:08;22.60;61.40
26186;DHT22;20067;48.764;9.176;2023-07-08T01:20:34;22.40;61.70
26186;DHT22;20067;48.764;9.176;2023-07-08T01:23:00;22.60;60.70
26186;DHT22;20067;48.764;9.176;2023-07-08T01:25:25;22.60;60.70
26186;DHT22;20067;48.764;9.176;2023-07-08T01:27:54;22.70;60.00
26186;DHT22;20067;48.764;9.176;2023-07-08T01:30:21;22.30;60.60
26186;DHT22;20067;48.764;9.176;2023-07-08T01:32:58;22.30;61.80
26186;DHT22;20067;48.764;9.176;2023-07-08T01:35:24;22.40;61.20
26186;DHT22;20067;48.764;9.176;2023-07-08T01:38:00;22.50;61.40
26186;DHT22;20067;48.764;9.176;2023-07-08T01:40:33;22.40;60.90
26186;DHT22;20067;48.764;9.176;2023-07-08T01:43:00;22.20;62.30
26186;DHT22;20067;48.764;9.176;2023-07-08T01:45:31;22.40;61.80
26186;DHT22;20067;48.764;9.176;2023-07-08T01:48:14;22.70;61.10
26186;DHT22;20067;48.764;9.176;2023-07-08T01:51:01;22.70;61.20
26186;DHT22;20067;48.764;9.176;2023-07-08T01:53:37;22.50;61.70
26186;DHT22;20067;48.764;9.176;2023-07-08T01:56:04;22.60;61.20
26186;DHT22;20067;48.764;9.176;2023-07-08T01:58:30;22.60;61.80
26186;DHT22;20067;48.764;9.176;2023-07-08T02:00:56;22.60;62.10
26186;DHT22;20067;48.764;9.176;2023-07-08T02:03:22;22.60;61.60
26186;DHT22;20067;48.764;9.176;2023-07-08T02:05:48;22.00;62.80
26186;DHT22;20067;48.764;9.176;2023-07-08T02:08:14;21.50;64.40
26186;DHT22;20067;48.764;9.176;2023-07-08T02:10:40;21.20;65.20
26186;DHT22;20067;48.764;9.176;2023-07-08T02:13:06;21.40;65.60
26186;DHT22;20067;48.764;9.176;2023-07-08T02:15:33;21.50;65.10
26186;DHT22;20067;48.764;9.176;2023-07-08T02:17:58;21.50;64.90
26186;DHT22;20067;48.764;9.176;2023-07-08T02:20:24;21.40;64.90
26186;DHT22;20067;48.764;9.176;2023-07-08T02:22:49;21.20;65.40
26186;DHT22;20067;48.764;9.176;2023-07-08T02:25:15;20.90;66.20
26186;DHT22;20067;48.764;9.176;2023-07-08T02:27:41;21.10;66.40
26186;DHT22;20067;48.764;9.176;2023-07-08T02:30:08;21.30;65.40
26186;DHT22;20067;48.764;9.176;2023-07-08T02:32:34;21.60;64.50
26186;DHT22;20067;48.764;9.176;2023-07-08T02:35:01;21.70;64.30
26186;DHT22;20067;48.764;9.176;2023-07-08T02:37:29;21.60;64.30
26186;DHT22;20067;48.764;9.176;2023-07-08T02:39:55;21.30;65.20
26186;DHT22;20067;48.764;9.176;2023-07-08T02:42:20;21.30;65.60
26186;DHT22;20067;48.764;9.176;2023-07-08T02:44:46;21.50;65.40
26186;DHT22;20067;48.764;9.176;2023-07-08T02:47:12;21.50;65.20
26186;DHT22;20067;48.764;9.176;2023-07-08T02:49:37;21.70;64.80
26186;DHT22;20067;48.764;9.176;2023-07-08T02:52:03;21.70;64.60
26186;DHT22;20067;48.764;9.176;2023-07-08T02:54:29;21.80;64.00
26186;DHT22;20067;48.764;9.176;2023-07-08T02:56:55;21.50;64.80
26186;DHT22;20067;48.764;9.176;2023-07-08T02:59:20;21.70;65.20
26186;DHT22;20067;48.764;9.176;2023-07-08T03:01:46;21.60;64.50
26186;DHT22;20067;48.764;9.176;2023-07-08T03:04:13;21.70;64.80
26186;DHT22;20067;48.764;9.176;2023-07-08T03:06:43;21.60;64.90
26186;DHT22;20067;48.764;9.176;2023-07-08T03:09:09;21.60;65.00
26186;DHT22;20067;48.764;9.176;2023-07-08T03:11:36;21.50;64.90
26186;DHT22;20067;48.764;9.176;2023-07-08T03:14:02;21.10;65.40
26186;DHT22;20067;48.764;9.176;2023-07-08T03:16:27;21.10;65.80
26186;DHT22;20067;48.764;9.176;2023-07-08T03:18:53;21.00;65.70
26186;DHT22;20067;48.764;9.176;2023-07-08T03:21:19;21.40;65.50
26186;DHT22;20067;48.764;9.176;2023-07-08T03:23:45;21.30;64.80
26186;DHT22;20067;48.764;9.176;2023-07-08T03:26:16;20.70;66.50
26186;DHT22;20067;48.764;9.176;2023-07-08T03:28:42;20.50;66.90
26186;DHT22;20067;48.764;9.176;2023-07-08T03:31:09;21.10;65.60
26186;DHT22;20067;48.764;9.176;2023-07-08T03:33:35;21.30;65.00
26186;DHT22;20067;48.764;9.176;2023-07-08T03:36:02;21.30;64.40
26186;DHT22;20067;48.764;9.176;2023-07-08T03:38:27;20.90;65.20
26186;DHT22;20067;48.764;9.176;2023-07-08T03:40:53;20.80;65.50
26186;DHT22;20067;48.764;9.176;2023-07-08T03:43:19;20.80;65.60
26186;DHT22;20067;48.764;9.176;2023-07-08T03:45:46;20.80;65.40
26186;DHT22;20067;48.764;9.176;2023-07-08T03:48:12;21.20;65.20
26186;DHT22;20067;48.764;9.176;2023-07-08T03:50:38;21.30;65.30
26186;DHT22;20067;48.764;9.176;2023-07-08T03:53:03;21.40;64.40
26186;DHT22;20067;48.764;9.176;2023-07-08T03:55:29;21.60;64.60
26186;DHT22;20067;48.764;9.176;2023-07-08T03:57:55;21.60;63.50
26186;DHT22;20067;48.764;9.176;2023-07-08T04:00:20;21.10;64.60
26186;DHT22;20067;48.764;9.176;2023-07-08T04:02:47;21.20;66.00
26186;DHT22;20067;48.764;9.176;2023-07-08T04:05:22;21.30;66.20
26186;DHT22;20067;48.764;9.176;2023-07-08T04:07:48;21.60;65.30
26186;DHT22;20067;48.764;9.176;2023-07-08T04:10:15;21.30;66.30
26186;DHT22;20067;48.764;9.176;2023-07-08T04:12:42;20.90;66.40
26186;DHT22;20067;48.764;9.176;2023-07-08T04:15:09;20.90;66.90
26186;DHT22;20067;48.764;9.176;2023-07-08T04:17:49;21.20;67.40
26186;DHT22;20067;48.764;9.176;2023-07-08T04:20:17;21.30;65.90
26186;DHT22;20067;48.764;9.176;2023-07-08T04:22:44;21.10;66.80
26186;DHT22;20067;48.764;9.176;2023-07-08T04:25:11;21.30;67.20
26186;DHT22;20067;48.764;9.176;2023-07-08T04:27:38;21.50;66.50
26186;DHT22;20067;48.764;9.176;2023-07-08T04:30:04;21.30;66.40
26186;DHT22;20067;48.764;9.176;2023-07-08T04:32:30;21.30;67.30
26186;DHT22;20067;48.764;9.176;2023-07-08T04:34:56;21.40;67.00
26186;DHT22;20067;48.764;9.176;2023-07-08T04:37:21;21.70;66.70
26186;DHT22;20067;48.764;9.176;2023-07-08T04:39:47;22.00;66.10
26186;DHT22;20067;48.764;9.176;2023-07-08T04:42:14;22.10;65.50
26186;DHT22;20067;48.764;9.176;2023-07-08T04:44:41;22.40;65.30
26186;DHT22;20067;48.764;9.176;2023-07-08T04:47:07;22.40;65.20
26186;DHT22;20067;48.764;9.176;2023-07-08T04:49:34;22.00;66.90
26186;DHT22;20067;48.764;9.176;2023-07-08T04:52:01;22.00;66.10
26186;DHT22;20067;48.764;9.176;2023-07-08T04:54:28;22.50;65.80
26186;DHT22;20067;48.764;9.176;2023-07-08T04:56:53;22.60;65.40
26186;DHT22;20067;48.764;9.176;2023-07-08T05:01:47;22.30;65.20
26186;DHT22;20067;48.764;9.176;2023-07-08T05:04:14;22.30;65.90
26186;DHT22;20067;48.764;9.176;2023-07-08T05:06:40;22.40;64.30
26186;DHT22;20067;48.764;9.176;2023-07-08T05:09:06;22.40;64.60
26186;DHT22;20067;48.764;9.176;2023-07-08T05:11:33;22.60;64.20
26186;DHT22;20067;48.764;9.176;2023-07-08T05:14:00;22.60;64.30
26186;DHT22;20067;48.764;9.176;2023-07-08T05:16:26;22.40;64.00
26186;DHT22;20067;48.764;9.176;2023-07-08T05:18:52;22.20;66.10
26186;DHT22;20067;48.764;9.176;2023-07-08T05:21:19;22.40;64.40
26186;DHT22;20067;48.764;9.176;2023-07-08T05:23:45;22.30;65.10
26186;DHT22;20067;48.764;9.176;2023-07-08T05:26:11;22.70;65.10
26186;DHT22;20067;48.764;9.176;2023-07-08T05:28:37;23.10;63.70
26186;DHT22;20067;48.764;9.176;2023-07-08T05:31:03;23.10;64.20
26186;DHT22;20067;48.764;9.176;2023-07-08T05:33:30;23.20;63.90
26186;DHT22;20067;48.764;9.176;2023-07-08T05:35:56;23.40;64.40
26186;DHT22;20067;48.764;9.176;2023-07-08T05:38:22;23.20;63.90
26186;DHT22;20067;48.764;9.176;2023-07-08T05:40:54;23.20;65.00
26186;DHT22;20067;48.764;9.176;2023-07-08T05:43:20;23.40;64.90
26186;DHT22;20067;48.764;9.176;2023-07-08T05:45:46;23.70;64.40
26186;DHT22;20067;48.764;9.176;2023-07-08T05:48:12;23.90;65.50
26186;DHT22;20067;48.764;9.176;2023-07-08T05:50:39;24.00;62.30
26186;DHT22;20067;48.764;9.176;2023-07-08T05:53:05;24.10;64.60
26186;DHT22;20067;48.764;9.176;2023-07-08T05:55:32;24.10;60.70
26186;DHT22;20067;48.764;9.176;2023-07-08T05:57:57;24.20;60.40
26186;DHT22;20067;48.764;9.176;2023-07-08T06:00:23;24.30;63.20
26186;DHT22;20067;48.764;9.176;2023-07-08T06:02:49;24.50;60.60
26186;DHT22;20067;48.764;9.176;2023-07-08T06:05:14;24.40;60.40
26186;DHT22;20067;48.764;9.176;2023-07-08T06:07:40;24.30;59.90
26186;DHT22;20067;48.764;9.176;2023-07-08T06:10:06;24.30;60.50
26186;DHT22;20067;48.764;9.176;2023-07-08T06:12:32;24.30;61.90
26186;DHT22;20067;48.764;9.176;2023-07-08T06:14:58;24.50;59.80
26186;DHT22;20067;48.764;9.176;2023-07-08T06:17:24;24.50;59.70
26186;DHT22;20067;48.764;9.176;2023-07-08T06:19:50;24.50;59.30
26186;DHT22;20067;48.764;9.176;2023-07-08T06:22:15;24.60;59.20
26186;DHT22;20067;48.764;9.176;2023-07-08T06:24:41;24.70;58.20
26186;DHT22;20067;48.764;9.176;2023-07-08T06:27:07;24.80;60.60
26186;DHT22;20067;48.764;9.176;2023-07-08T06:29:34;25.00;57.80
26186;DHT22;20067;48.764;9.176;2023-07-08T06:32:00;25.00;58.10
26186;DHT22;20067;48.764;9.176;2023-07-08T06:34:25;25.00;59.80
26186;DHT22;20067;48.764;9.176;2023-07-08T06:36:51;25.20;58.20
26186;DHT22;20067;48.764;9.176;2023-07-08T06:39:17;25.30;60.50
26186;DHT22;20067;48.764;9.176;2023-07-08T06:41:44;25.20;58.80
26186;DHT22;20067;48.764;9.176;2023-07-08T06:44:10;25.40;58.90
26186;DHT22;20067;48.764;9.176;2023-07-08T06:46:35;25.50;59.40
26186;DHT22;20067;48.764;9.176;2023-07-08T06:49:01;25.40;60.00
26186;DHT22;20067;48.764;9.176;2023-07-08T06:51:27;25.60;60.10
26186;DHT22;20067;48.764;9.176;2023-07-08T06:53:53;25.60;58.90
26186;DHT22;20067;48.764;9.176;2023-07-08T06:56:19;25.50;59.60
26186;DHT22;20067;48.764;9.176;2023-07-08T06:58:45;25.50;60.50
26186;DHT22;20067;48.764;9.176;2023-07-08T07:01:11;25.50;63.90
26186;DHT22;20067;48.764;9.176;2023-07-08T07:03:37;25.60;63.00
26186;DHT22;20067;48.764;9.176;2023-07-08T07:06:07;25.60;61.00
26186;DHT22;20067;48.764;9.176;2023-07-08T07:08:38;25.60;61.50
26186;DHT22;20067;48.764;9.176;2023-07-08T07:11:04;25.50;61.20
26186;DHT22;20067;48.764;9.176;2023-07-08T07:13:32;25.60;61.30
26186;DHT22;20067;48.764;9.176;2023-07-08T07:15:58;25.70;60.80
26186;DHT22;20067;48.764;9.176;2023-07-08T07:18:24;25.80;61.30
26186;DHT22;20067;48.764;9.176;2023-07-08T07:20:52;25.70;61.90
26186;DHT22;20067;48.764;9.176;2023-07-08T07:23:18;25.80;61.30
26186;DHT22;20067;48.764;9.176;2023-07-08T07:25:46;25.90;61.90
26186;DHT22;20067;48.764;9.176;2023-07-08T07:28:14;25.90;60.90
26186;DHT22;20067;48.764;9.176;2023-07-08T07:30:39;25.90;61.70
26186;DHT22;20067;48.764;9.176;2023-07-08T07:33:05;25.80;62.10
26186;DHT22;20067;48.764;9.176;2023-07-08T07:35:31;25.80;62.20
26186;DHT22;20067;48.764;9.176;2023-07-08T07:37:57;25.70;61.90
26186;DHT22;20067;48.764;9.176;2023-07-08T07:40:22;25.70;62.00
26186;DHT22;20067;48.764;9.176;2023-07-08T07:42:48;25.70;63.30
26186;DHT22;20067;48.764;9.176;2023-07-08T07:45:14;25.80;62.10
26186;DHT22;20067;48.764;9.176;2023-07-08T07:47:40;25.90;61.60
26186;DHT22;20067;48.764;9.176;2023-07-08T07:50:07;26.10;62.80
26186;DHT22;20067;48.764;9.176;2023-07-08T07:52:33;26.30;62.40
26186;DHT22;20067;48.764;9.176;2023-07-08T07:54:59;26.30;61.60
26186;DHT22;20067;48.764;9.176;2023-07-08T07:57:25;26.30;61.90
26186;DHT22;20067;48.764;9.176;2023-07-08T07:59:51;26.40;62.00
26186;DHT22;20067;48.764;9.176;2023-07-08T08:02:17;26.60;61.60
26186;DHT22;20067;48.764;9.176;2023-07-08T08:04:43;26.80;60.20
26186;DHT22;20067;48.764;9.176;2023-07-08T08:07:08;27.00;61.70
26186;DHT22;20067;48.764;9.176;2023-07-08T08:09:36;27.20;60.40
26186;DHT22;20067;48.764;9.176;2023-07-08T08:12:03;27.50;59.80
26186;DHT22;20067;48.764;9.176;2023-07-08T08:14:29;27.80;60.50
26186;DHT22;20067;48.764;9.176;2023-07-08T08:16:55;28.00;59.10
26186;DHT22;20067;48.764;9.176;2023-07-08T08:19:21;28.10;59.80
26186;DHT22;20067;48.764;9.176;2023-07-08T08:21:47;28.60;58.20
26186;DHT22;20067;48.764;9.176;2023-07-08T08:24:13;28.70;56.70
26186;DHT22;20067;48.764;9.176;2023-07-08T08:26:39;28.50;56.50
26186;DHT22;20067;48.764;9.176;2023-07-08T08:29:04;28.50;59.80
26186;DHT22;20067;48.764;9.176;2023-07-08T08:31:30;28.60;57.70
26186;DHT22;20067;48.764;9.176;2023-07-08T08:33:56;28.90;58.30
26186;DHT22;20067;48.764;9.176;2023-07-08T08:36:22;29.40;56.90
26186;DHT22;20067;48.764;9.176;2023-07-08T08:38:48;29.60;55.80
26186;DHT22;20067;48.764;9.176;2023-07-08T08:41:18;29.60;57.30
26186;DHT22;20067;48.764;9.176;2023-07-08T08:43:47;29.70;54.70
26186;DHT22;20067;48.764;9.176;2023-07-08T08:51:40;29.60;55.70
26186;DHT22;20067;48.764;9.176;2023-07-08T08:54:07;29.60;53.80
26186;DHT22;20067;48.764;9.176;2023-07-08T09:01:55;29.20;55.10
26186;DHT22;20067;48.764;9.176;2023-07-08T09:04:25;28.90;55.70
26186;DHT22;20067;48.764;9.176;2023-07-08T09:06:58;28.60;56.40
26186;DHT22;20067;48.764;9.176;2023-07-08T09:09:39;28.90;57.00
26186;DHT22;20067;48.764;9.176;2023-07-08T09:12:13;29.20;55.40
26186;DHT22;20067;48.764;9.176;2023-07-08T09:14:42;29.60;53.90
26186;DHT22;20067;48.764;9.176;2023-07-08T09:20:06;29.80;53.30
26186;DHT22;20067;48.764;9.176;2023-07-08T09:22:41;29.70;56.20
26186;DHT22;20067;48.764;9.176;2023-07-08T09:27:37;30.30;52.20
26186;DHT22;20067;48.764;9.176;2023-07-08T09:30:03;30.80;54.20
26186;DHT22;20067;48.764;9.176;2023-07-08T09:32:29;31.00;53.00
26186;DHT22;20067;48.764;9.176;2023-07-08T09:35:06;31.30;54.30
26186;DHT22;20067;48.764;9.176;2023-07-08T09:37:34;31.30;52.10
26186;DHT22;20067;48.764;9.176;2023-07-08T09:42:42;32.40;52.30
26186;DHT22;20067;48.764;9.176;2023-07-08T09:45:14;31.60;50.30
26186;DHT22;20067;48.764;9.176;2023-07-08T09:47:42;31.40;52.80
26186;DHT22;20067;48.764;9.176;2023-07-08T09:52:44;32.30;49.90
26186;DHT22;20067;48.764;9.176;2023-07-08T09:55:13;31.60;51.50
26186;DHT22;20067;48.764;9.176;2023-07-08T09:57:39;31.40;50.30
26186;DHT22;20067;48.764;9.176;2023-07-08T10:00:12;31.40;54.00
26186;DHT22;20067;48.764;9.176;2023-07-08T10:02:43;31.00;49.90
26186;DHT22;20067;48.764;9.176;2023-07-08T10:05:28;31.00;52.20
26186;DHT22;20067;48.764;9.176;2023-07-08T10:07:57;30.70;50.70
26186;DHT22;20067;48.764;9.176;2023-07-08T10:10:31;30.70;52.60
26186;DHT22;20067;48.764;9.176;2023-07-08T10:13:01;30.40;51.60
26186;DHT22;20067;48.764;9.176;2023-07-08T10:15:32;30.40;52.20
26186;DHT22;20067;48.764;9.176;2023-07-08T10:17:59;30.40;52.50
26186;DHT22;20067;48.764;9.176;2023-07-08T10:20:35;29.90;53.70
26186;DHT22;20067;48.764;9.176;2023-07-08T10:26:07;28.50;56.30
26186;DHT22;20067;48.764;9.176;2023-07-08T10:28:36;28.70;58.00
26186;DHT22;20067;48.764;9.176;2023-07-08T10:34:10;28.90;58.10
26186;DHT22;20067;48.764;9.176;2023-07-08T10:42:15;28.80;58.30
26186;DHT22;20067;48.764;9.176;2023-07-08T10:45:26;29.10;60.20
26186;DHT22;20067;48.764;9.176;2023-07-08T10:59:59;33.10;51.20
26186;DHT22;20067;48.764;9.176;2023-07-08T11:13:16;31.60;51.40
26186;DHT22;20067;48.764;9.176;2023-07-08T11:16:00;31.70;52.50
26186;DHT22;20067;48.764;9.176;2023-07-08T11:18:40;32.10;50.50
26186;DHT22;20067;48.764;9.176;2023-07-08T11:21:08;32.40;49.90
26186;DHT22;20067;48.764;9.176;2023-07-08T11:26:34;30.30;53.90
26186;DHT22;20067;48.764;9.176;2023-07-08T11:29:04;30.70;52.90
26186;DHT22;20067;48.764;9.176;2023-07-08T11:31:36;31.10;52.40
26186;DHT22;20067;48.764;9.176;2023-07-08T11:34:03;31.70;52.10
26186;DHT22;20067;48.764;9.176;2023-07-08T11:36:30;32.90;49.70
26186;DHT22;20067;48.764;9.176;2023-07-08T11:38:56;34.30;48.30
26186;DHT22;20067;48.764;9.176;2023-07-08T11:41:26;35.30;45.30
26186;DHT22;20067;48.764;9.176;2023-07-08T11:43:59;35.80;45.30
26186;DHT22;20067;48.764;9.176;2023-07-08T11:46:28;36.40;45.40
26186;DHT22;20067;48.764;9.176;2023-07-08T11:49:01;37.50;43.70
26186;DHT22;20067;48.764;9.176;2023-07-08T11:51:31;41.00;40.10
26186;DHT22;20067;48.764;9.176;2023-07-08T11:57:14;39.30;42.20
26186;DHT22;20067;48.764;9.176;2023-07-08T11:59:38;37.60;44.50
26186;DHT22;20067;48.764;9.176;2023-07-08T12:02:19;38.30;43.60
26186;DHT22;20067;48.764;9.176;2023-07-08T12:05:11;37.50;44.30
26186;DHT22;20067;48.764;9.176;2023-07-08T12:07:42;38.20;40.90
26186;DHT22;20067;48.764;9.176;2023-07-08T12:12:44;40.60;38.40
26186;DHT22;20067;48.764;9.176;2023-07-08T12:15:25;43.60;39.60
26186;DHT22;20067;48.764;9.176;2023-07-08T12:17:55;45.40;36.00
26186;DHT22;20067;48.764;9.176;2023-07-08T12:20:23;46.60;33.00
26186;DHT22;20067;48.764;9.176;2023-07-08T12:22:51;44.90;33.30
26186;DHT22;20067;48.764;9.176;2023-07-08T12:25:19;44.10;37.10
26186;DHT22;20067;48.764;9.176;2023-07-08T12:27:46;41.00;37.40
26186;DHT22;20067;48.764;9.176;2023-07-08T12:30:13;37.90;40.30
26186;DHT22;20067;48.764;9.176;2023-07-08T12:32:40;39.70;39.80
26186;DHT22;20067;48.764;9.176;2023-07-08T12:35:30;41.90;35.80
26186;DHT22;20067;48.764;9.176;2023-07-08T12:38:01;43.10;37.40
26186;DHT22;20067;48.764;9.176;2023-07-08T12:40:29;43.60;33.90
26186;DHT22;20067;48.764;9.176;2023-07-08T12:42:56;44.90;33.20
26186;DHT22;20067;48.764;9.176;2023-07-08T12:45:23;44.50;33.50
26186;DHT22;20067;48.764;9.176;2023-07-08T12:47:50;43.60;33.90
26186;DHT22;20067;48.764;9.176;2023-07-08T12:50:16;45.00;33.90
26186;DHT22;20067;48.764;9.176;2023-07-08T12:52:46;43.00;34.90
26186;DHT22;20067;48.764;9.176;2023-07-08T12:55:14;40.40;37.10
26186;DHT22;20067;48.764;9.176;2023-07-08T12:57:43;38.90;39.70
26186;DHT22;20067;48.764;9.176;2023-07-08T13:00:16;38.80;37.90
26186;DHT22;20067;48.764;9.176;2023-07-08T13:02:45;39.60;37.50
26186;DHT22;20067;48.764;9.176;2023-07-08T13:05:13;41.60;37.10
26186;DHT22;20067;48.764;9.176;2023-07-08T13:07:41;41.30;37.10
26186;DHT22;20067;48.764;9.176;2023-07-08T13:10:20;39.90;36.80
26186;DHT22;20067;48.764;9.176;2023-07-08T13:12:49;39.80;38.00
26186;DHT22;20067;48.764;9.176;2023-07-08T13:15:24;39.50;39.00
26186;DHT22;20067;48.764;9.176;2023-07-08T13:17:51;38.80;38.20
26186;DHT22;20067;48.764;9.176;2023-07-08T13:20:17;38.90;39.40
26186;DHT22;20067;48.764;9.176;2023-07-08T13:22:46;37.60;39.20
26186;DHT22;20067;48.764;9.176;2023-07-08T13:25:27;38.60;38.20
26186;DHT22;20067;48.764;9.176;2023-07-08T13:28:02;39.70;38.40
26186;DHT22;20067;48.764;9.176;2023-07-08T13:30:30;39.70;36.60
26186;DHT22;20067;48.764;9.176;2023-07-08T13:32:59;38.50;37.70
26186;DHT22;20067;48.764;9.176;2023-07-08T13:35:36;37.10;39.40
26186;DHT22;20067;48.764;9.176;2023-07-08T13:38:03;37.80;40.30
26186;DHT22;20067;48.764;9.176;2023-07-08T13:40:30;40.80;38.40
26186;DHT22;20067;48.764;9.176;2023-07-08T13:42:56;39.20;37.70
26186;DHT22;20067;48.764;9.176;2023-07-08T13:45:27;40.20;36.40
26186;DHT22;20067;48.764;9.176;2023-07-08T13:48:02;42.70;35.00
26186;DHT22;20067;48.764;9.176;2023-07-08T13:50:35;40.30;34.50
26186;DHT22;20067;48.764;9.176;2023-07-08T13:53:16;40.50;35.00
26186;DHT22;20067;48.764;9.176;2023-07-08T13:55:42;41.20;33.90
26186;DHT22;20067;48.764;9.176;2023-07-08T13:58:15;42.30;34.90
26186;DHT22;20067;48.764;9.176;2023-07-08T14:00:41;43.20;32.10
26186;DHT22;20067;48.764;9.176;2023-07-08T14:03:11;43.60;31.90
26186;DHT22;20067;48.764;9.176;2023-07-08T14:05:38;41.80;34.00
26186;DHT22;20067;48.764;9.176;2023-07-08T14:08:14;38.00;38.30
26186;DHT22;20067;48.764;9.176;2023-07-08T14:10:40;36.80;40.30
26186;DHT22;20067;48.764;9.176;2023-07-08T14:13:06;36.10;41.70
26186;DHT22;20067;48.764;9.176;2023-07-08T14:15:32;36.00;40.90
26186;DHT22;20067;48.764;9.176;2023-07-08T14:18:00;37.30;40.10
26186;DHT22;20067;48.764;9.176;2023-07-08T14:20:26;37.20;41.20
26186;DHT22;20067;48.764;9.176;2023-07-08T14:22:52;38.60;39.30
26186;DHT22;20067;48.764;9.176;2023-07-08T14:25:18;39.60;38.20
26186;DHT22;20067;48.764;9.176;2023-07-08T14:27:49;38.30;39.10
26186;DHT22;20067;48.764;9.176;2023-07-08T14:30:15;36.20;41.50
26186;DHT22;20067;48.764;9.176;2023-07-08T14:32:41;37.20;40.80
26186;DHT22;20067;48.764;9.176;2023-07-08T14:35:23;38.00;40.00
26186;DHT22;20067;48.764;9.176;2023-07-08T14:37:50;35.70;41.60
26186;DHT22;20067;48.764;9.176;2023-07-08T14:40:31;34.90;42.50
26186;DHT22;20067;48.764;9.176;2023-07-08T14:43:05;35.00;44.50
26186;DHT22;20067;48.764;9.176;2023-07-08T14:45:38;35.10;42.90
26186;DHT22;20067;48.764;9.176;2023-07-08T14:48:08;35.00;43.50
26186;DHT22;20067;48.764;9.176;2023-07-08T14:50:35;35.00;43.30
26186;DHT22;20067;48.764;9.176;2023-07-08T14:53:01;34.90;43.20
26186;DHT22;20067;48.764;9.176;2023-07-08T14:55:26;34.80;42.40
26186;DHT22;20067;48.764;9.176;2023-07-08T14:57:52;35.10;42.30
26186;DHT22;20067;48.764;9.176;2023-07-08T15:00:20;35.30;42.60
26186;DHT22;20067;48.764;9.176;2023-07-08T15:02:47;35.40;42.10
26186;DHT22;20067;48.764;9.176;2023-07-08T15:07:41;36.00;41.30
26186;DHT22;20067;48.764;9.176;2023-07-08T15:10:08;36.20;41.60
26186;DHT22;20067;48.764;9.176;2023-07-08T15:12:34;35.70;42.30
26186;DHT22;20067;48.764;9.176;2023-07-08T15:15:00;35.60;42.00
26186;DHT22;20067;48.764;9.176;2023-07-08T15:17:26;35.50;42.40
26186;DHT22;20067;48.764;9.176;2023-07-08T15:19:52;35.40;42.10
26186;DHT22;20067;48.764;9.176;2023-07-08T15:22:17;34.80;43.20
26186;DHT22;20067;48.764;9.176;2023-07-08T15:24:43;34.80;42.60
26186;DHT22;20067;48.764;9.176;2023-07-08T15:27:12;34.80;43.50
26186;DHT22;20067;48.764;9.176;2023-07-08T15:29:39;35.00;42.30
26186;DHT22;20067;48.764;9.176;2023-07-08T15:32:13;35.10;43.60
26186;DHT22;20067;48.764;9.176;2023-07-08T15:34:45;35.30;41.90
26186;DHT22;20067;48.764;9.176;2023-07-08T15:37:10;35.10;42.30
26186;DHT22;20067;48.764;9.176;2023-07-08T15:39:36;35.00;42.30
26186;DHT22;20067;48.764;9.176;2023-07-08T15:42:03;35.10;43.40
26186;DHT22;20067;48.764;9.176;2023-07-08T15:44:28;35.20;43.40
26186;DHT22;20067;48.764;9.176;2023-07-08T15:46:54;35.30;42.60
26186;DHT22;20067;48.764;9.176;2023-07-08T15:49:22;35.10;42.60
26186;DHT22;20067;48.764;9.176;2023-07-08T15:51:53;34.20;43.10
26186;DHT22;20067;48.764;9.176;2023-07-08T15:54:19;33.60;43.90
26186;DHT22;20067;48.764;9.176;2023-07-08T15:56:46;33.70;43.80
26186;DHT22;20067;48.764;9.176;2023-07-08T15:59:16;34.00;44.50
26186;DHT22;20067;48.764;9.176;2023-07-08T16:01:43;34.30;43.30
26186;DHT22;20067;48.764;9.176;2023-07-08T16:04:32;34.60;43.80
26186;DHT22;20067;48.764;9.176;2023-07-08T16:06:58;34.80;42.00
26186;DHT22;20067;48.764;9.176;2023-07-08T16:09:24;34.60;42.80
26186;DHT22;20067;48.764;9.176;2023-07-08T16:11:50;34.60;43.50
26186;DHT22;20067;48.764;9.176;2023-07-08T16:14:18;34.40;44.20
26186;DHT22;20067;48.764;9.176;2023-07-08T16:16:44;34.10;44.70
26186;DHT22;20067;48.764;9.176;2023-07-08T16:19:11;34.30;44.80
26186;DHT22;20067;48.764;9.176;2023-07-08T16:21:37;34.10;45.10
26186;DHT22;20067;48.764;9.176;2023-07-08T16:24:03;34.00;44.60
26186;DHT22;20067;48.764;9.176;2023-07-08T16:26:29;34.00;45.10
26186;DHT22;20067;48.764;9.176;2023-07-08T16:28:56;33.90;44.10
26186;DHT22;20067;48.764;9.176;2023-07-08T16:31:24;33.70;44.30
26186;DHT22;20067;48.764;9.176;2023-07-08T16:33:52;33.50;45.10
26186;DHT22;20067;48.764;9.176;2023-07-08T16:36:20;33.60;44.90
26186;DHT22;20067;48.764;9.176;2023-07-08T16:38:47;33.70;44.50
26186;DHT22;20067;48.764;9.176;2023-07-08T16:41:25;33.60;45.50
26186;DHT22;20067;48.764;9.176;2023-07-08T16:43:51;33.70;45.50
26186;DHT22;20067;48.764;9.176;2023-07-08T16:46:18;33.50;44.70
26186;DHT22;20067;48.764;9.176;2023-07-08T16:48:44;33.70;46.10